createdAt,value
2018-06-03T00:00:38.473Z,101300.84
2018-06-03T00:02:43.235Z,101298.70
2018-06-03T00:04:48.021Z,101305.11
2018-06-03T00:06:52.926Z,101274.80
2018-06-03T00:08:57.545Z,101298.17
2018-06-03T00:11:02.262Z,101296.00
2018-06-03T00:13:06.916Z,101301.26
2018-06-03T00:15:11.671Z,101296.16
2018-06-03T00:17:16.298Z,101298.22
2018-06-03T00:19:20.960Z,101302.61
2018-06-03T00:21:42.054Z,101297.61
2018-06-03T00:23:46.816Z,101300.13
2018-06-03T00:25:51.498Z,101300.13
2018-06-03T00:27:56.181Z,101299.93
2018-06-03T00:30:00.911Z,101296.50
2018-06-03T00:32:05.660Z,101286.50
2018-06-03T00:34:10.293Z,101296.45
2018-06-03T00:36:31.957Z,101290.34
2018-06-03T00:38:36.637Z,101276.24
2018-06-03T00:40:41.349Z,101263.81
2018-06-03T00:42:46.363Z,101250.59
2018-06-03T00:44:51.030Z,101269.45
2018-06-03T00:46:55.713Z,101278.00
2018-06-03T00:49:00.355Z,101283.52
2018-06-03T00:51:05.063Z,101287.41
2018-06-03T00:53:09.691Z,101286.56
2018-06-03T00:55:14.490Z,101288.61
2018-06-03T00:57:19.139Z,101285.27
2018-06-03T00:59:23.794Z,101288.13
2018-06-03T01:01:28.467Z,101281.27
2018-06-03T01:03:33.123Z,101280.11
2018-06-03T01:05:37.836Z,101277.89
2018-06-03T01:07:42.527Z,101277.38
2018-06-03T01:09:47.178Z,101273.83
2018-06-03T01:11:51.974Z,101277.59
2018-06-03T01:13:56.721Z,101278.89
2018-06-03T01:16:01.318Z,101279.31
2018-06-03T01:18:05.972Z,101243.98
2018-06-03T01:20:10.700Z,101272.54
2018-06-03T01:22:15.340Z,101264.05
2018-06-03T01:24:19.971Z,101270.81
2018-06-03T01:26:24.619Z,101271.19
2018-06-03T01:28:29.254Z,101268.09
2018-06-03T01:30:34.024Z,101267.68
2018-06-03T01:32:38.717Z,101266.25
2018-06-03T01:34:43.539Z,101266.67
2018-06-03T01:36:48.334Z,101267.13
2018-06-03T01:38:53.105Z,101268.38
2018-06-03T01:40:57.797Z,101274.16
2018-06-03T01:43:02.527Z,101256.00
2018-06-03T01:45:07.286Z,101257.20
2018-06-03T01:47:11.987Z,101269.79
2018-06-03T01:49:16.619Z,101272.80
2018-06-03T01:51:21.366Z,101271.08
2018-06-03T01:53:26.050Z,101268.54
2018-06-03T01:55:30.718Z,101265.53
2018-06-03T01:57:35.357Z,101265.53
2018-06-03T01:59:39.994Z,101253.28
2018-06-03T02:01:44.711Z,101259.94
2018-06-03T02:03:49.401Z,101229.99
2018-06-03T02:05:54.186Z,101265.11
2018-06-03T02:07:59.147Z,101260.39
2018-06-03T02:10:03.912Z,101256.92
2018-06-03T02:12:08.611Z,101257.71
2018-06-03T02:14:13.326Z,101253.03
2018-06-03T02:16:18.036Z,101249.98
2018-06-03T02:18:22.807Z,101253.87
2018-06-03T02:20:27.475Z,101252.58
2018-06-03T02:22:32.224Z,101255.20
2018-06-03T02:24:36.858Z,101248.64
2018-06-03T02:26:41.477Z,101249.52
2018-06-03T02:28:46.583Z,101247.02
2018-06-03T02:30:51.285Z,101251.36
2018-06-03T02:32:55.905Z,101234.31
2018-06-03T02:35:00.586Z,101243.27
2018-06-03T02:37:05.347Z,101245.30
2018-06-03T02:39:09.947Z,101246.05
2018-06-03T02:41:14.632Z,101243.42
2018-06-03T02:43:19.274Z,101244.80
2018-06-03T02:45:23.889Z,101240.03
2018-06-03T02:47:28.590Z,101241.75
2018-06-03T02:49:33.329Z,101224.10
2018-06-03T02:51:37.989Z,101242.03
2018-06-03T02:53:42.817Z,101238.89
2018-06-03T02:55:47.613Z,101242.23
2018-06-03T02:57:52.294Z,101238.05
2018-06-03T02:59:56.954Z,101233.66
2018-06-03T03:02:01.844Z,101242.80
2018-06-03T03:04:06.479Z,101228.80
2018-06-03T03:06:11.155Z,101239.80
2018-06-03T03:08:15.850Z,101245.86
2018-06-03T03:10:20.603Z,101243.59
2018-06-03T03:12:25.282Z,101247.44
2018-06-03T03:14:29.947Z,101249.19
2018-06-03T03:16:34.556Z,101245.31
2018-06-03T03:18:39.169Z,101243.97
2018-06-03T03:20:43.853Z,101233.98
2018-06-03T03:22:48.546Z,101234.30
2018-06-03T03:24:53.237Z,101235.55
2018-06-03T03:26:57.905Z,101241.48
2018-06-03T03:29:02.725Z,101241.35
2018-06-03T03:31:07.644Z,101236.08
2018-06-03T03:33:12.317Z,101240.37
2018-06-03T03:35:17.359Z,101245.52
2018-06-03T03:37:22.180Z,101241.58
2018-06-03T03:39:26.911Z,101247.17
2018-06-03T03:41:32.141Z,101252.41
2018-06-03T03:43:37.889Z,101248.56
2018-06-03T03:45:43.573Z,101246.48
2018-06-03T03:47:48.978Z,101245.98
2018-06-03T03:49:55.239Z,101245.88
2018-06-03T03:52:01.170Z,101240.61
2018-06-03T03:54:06.320Z,101241.30
2018-06-03T03:56:11.858Z,101241.16
2018-06-03T03:58:17.189Z,101239.31
2018-06-03T04:00:22.266Z,101242.31
2018-06-03T04:02:27.342Z,101240.14
2018-06-03T04:04:32.600Z,101236.45
2018-06-03T04:06:38.059Z,101243.09
2018-06-03T04:08:43.124Z,101241.84
2018-06-03T04:10:48.559Z,101238.06
2018-06-03T04:12:54.083Z,101231.86
2018-06-03T04:15:00.221Z,101241.11
2018-06-03T04:17:05.371Z,101241.20
2018-06-03T04:19:10.708Z,101200.76
2018-06-03T04:21:16.318Z,101243.05
2018-06-03T04:23:22.458Z,101242.27
2018-06-03T04:25:27.909Z,101244.95
2018-06-03T04:27:33.353Z,101243.43
2018-06-03T04:29:44.916Z,101230.25
2018-06-03T04:31:50.114Z,101241.11
2018-06-03T04:33:55.421Z,101243.69
2018-06-03T04:36:00.809Z,101241.11
2018-06-03T04:38:06.169Z,101245.87
2018-06-03T04:40:11.505Z,101245.12
2018-06-03T04:42:16.742Z,101235.97
2018-06-03T04:44:22.058Z,101253.45
2018-06-03T04:46:27.357Z,101250.03
2018-06-03T04:48:32.736Z,101256.59
2018-06-03T04:50:38.174Z,101249.75
2018-06-03T04:52:43.395Z,101253.26
2018-06-03T04:54:49.176Z,101255.94
2018-06-03T04:56:54.384Z,101258.23
2018-06-03T04:59:00.128Z,101263.97
2018-06-03T05:01:05.745Z,101263.64
2018-06-03T05:03:11.491Z,101262.48
2018-06-03T05:05:17.193Z,101263.95
2018-06-03T05:07:22.821Z,101277.50
2018-06-03T05:09:28.383Z,101268.52
2018-06-03T05:11:33.499Z,101273.83
2018-06-03T05:13:38.977Z,101274.37
2018-06-03T05:15:44.527Z,101260.45
2018-06-03T05:17:50.048Z,101276.34
2018-06-03T05:19:55.731Z,101277.31
2018-06-03T05:22:01.964Z,101261.54
2018-06-03T05:24:07.319Z,101219.22
2018-06-03T05:26:19.390Z,101286.70
2018-06-03T05:28:25.377Z,101288.13
2018-06-03T05:30:31.595Z,101258.36
2018-06-03T05:32:37.257Z,101257.73
2018-06-03T05:34:42.805Z,101298.15
2018-06-03T05:36:49.261Z,101300.91
2018-06-03T05:38:55.170Z,101298.17
2018-06-03T05:41:01.439Z,101290.27
2018-06-03T05:43:06.895Z,101300.97
2018-06-03T05:45:12.334Z,101289.41
2018-06-03T05:47:18.226Z,101287.56
2018-06-03T05:49:23.812Z,101299.36
2018-06-03T05:51:29.456Z,101267.61
2018-06-03T05:53:35.979Z,101298.62
2018-06-03T05:55:42.460Z,101251.19
2018-06-03T05:57:49.574Z,101237.34
2018-06-03T05:59:56.650Z,101296.73
2018-06-03T06:02:02.579Z,101275.48
2018-06-03T06:04:08.036Z,101299.11
2018-06-03T06:06:13.936Z,101283.84
2018-06-03T06:08:19.368Z,101303.53
2018-06-03T06:10:25.380Z,101307.21
2018-06-03T06:12:31.592Z,101304.69
2018-06-03T06:14:37.924Z,101270.81
2018-06-03T06:16:43.516Z,101313.73
2018-06-03T06:18:49.307Z,101325.12
2018-06-03T06:20:55.165Z,101326.77
2018-06-03T06:23:00.791Z,101325.08
2018-06-03T06:25:06.684Z,101321.72
2018-06-03T06:27:12.419Z,101328.70
2018-06-03T06:29:17.876Z,101320.70
2018-06-03T06:31:24.321Z,101321.66
2018-06-03T06:33:30.234Z,101321.30
2018-06-03T06:35:36.584Z,101318.95
2018-06-03T06:37:42.229Z,101306.80
2018-06-03T06:39:49.309Z,101314.77
2018-06-03T06:41:55.349Z,101323.29
2018-06-03T06:44:01.801Z,101327.52
2018-06-03T06:46:08.112Z,101327.26
2018-06-03T06:48:14.377Z,101313.30
2018-06-03T06:50:20.868Z,101323.77
2018-06-03T06:52:26.579Z,101316.71
2018-06-03T06:54:33.064Z,101325.84
2018-06-03T06:56:39.391Z,101322.98
2018-06-03T06:58:46.176Z,101333.22
2018-06-03T07:00:52.147Z,101331.69
2018-06-03T07:02:57.994Z,101339.22
2018-06-03T07:05:05.357Z,101337.73
2018-06-03T07:07:11.584Z,101339.81
2018-06-03T07:09:17.274Z,101341.04
2018-06-03T07:11:23.564Z,101339.88
2018-06-03T07:13:30.025Z,101341.58
2018-06-03T07:15:36.697Z,101342.15
2018-06-03T07:17:42.764Z,101337.45
2018-06-03T07:19:49.370Z,101338.64
2018-06-03T07:21:57.295Z,101336.09
2018-06-03T07:24:03.355Z,101335.47
2018-06-03T07:26:10.537Z,101333.34
2018-06-03T07:28:16.776Z,101339.46
2018-06-03T07:30:23.356Z,101323.25
2018-06-03T07:32:30.612Z,101335.16
2018-06-03T07:36:54.113Z,101336.86
2018-06-03T07:39:03.496Z,101338.61
2018-06-03T07:41:10.260Z,101332.64
2018-06-03T07:43:16.014Z,101333.15
2018-06-03T07:45:22.575Z,101338.26
2018-06-03T07:47:28.816Z,101313.39
2018-06-03T07:49:35.544Z,101341.18
2018-06-03T07:51:42.271Z,101336.32
2018-06-03T07:53:48.972Z,101338.55
2018-06-03T07:55:55.513Z,101330.59
2018-06-03T07:58:01.721Z,101337.53
2018-06-03T08:00:10.036Z,101338.86
2018-06-03T08:02:17.112Z,101339.08
2018-06-03T08:04:23.336Z,101326.67
2018-06-03T08:06:29.582Z,101332.77
2018-06-03T08:08:36.237Z,101333.37
2018-06-03T08:10:42.502Z,101330.28
2018-06-03T08:12:49.053Z,101329.89
2018-06-03T08:14:55.673Z,101325.15
2018-06-03T08:17:01.968Z,101323.44
2018-06-03T08:19:09.232Z,101334.48
2018-06-03T08:21:15.839Z,101330.97
2018-06-03T08:23:22.883Z,101301.70
2018-06-03T08:25:30.138Z,101325.83
2018-06-03T08:27:36.705Z,101304.89
2018-06-03T08:29:42.900Z,101327.67
2018-06-03T08:31:49.320Z,101325.58
2018-06-03T08:33:54.528Z,101322.02
2018-06-03T08:36:02.183Z,101322.68
2018-06-03T08:38:08.300Z,101319.34
2018-06-03T08:40:14.099Z,101321.13
2018-06-03T08:42:20.672Z,101323.69
2018-06-03T08:44:27.762Z,101251.20
2018-06-03T08:46:33.829Z,101316.66
2018-06-03T08:48:39.457Z,101329.75
2018-06-03T08:50:46.275Z,101316.91
2018-06-03T08:52:52.114Z,101324.58
2018-06-03T08:54:57.482Z,101324.23
2018-06-03T08:57:03.795Z,101332.97
2018-06-03T08:59:09.668Z,101329.58
2018-06-03T09:01:15.357Z,101325.89
2018-06-03T09:03:21.800Z,101333.88
2018-06-03T09:05:34.285Z,101322.73
2018-06-03T09:07:39.962Z,101328.16
2018-06-03T09:09:46.438Z,101329.84
2018-06-03T09:11:52.819Z,101324.34
2018-06-03T09:13:59.644Z,101323.38
2018-06-03T09:16:05.906Z,101318.45
2018-06-03T09:18:11.972Z,101326.70
2018-06-03T09:20:17.762Z,101328.74
2018-06-03T09:22:23.463Z,101323.56
2018-06-03T09:24:29.494Z,101321.63
2018-06-03T09:26:35.996Z,101317.39
2018-06-03T09:28:41.810Z,101316.13
2018-06-03T09:30:49.134Z,101295.80
2018-06-03T09:32:54.860Z,101312.56
2018-06-03T09:35:01.121Z,101314.09
2018-06-03T09:37:06.929Z,101318.97
2018-06-03T09:39:12.582Z,101322.31
2018-06-03T09:41:18.169Z,101312.75
2018-06-03T09:43:24.585Z,101297.27
2018-06-03T09:45:30.033Z,101320.19
2018-06-03T09:47:35.913Z,101315.92
2018-06-03T09:49:42.079Z,101296.91
2018-06-03T09:51:47.826Z,101311.27
2018-06-03T09:54:00.541Z,101284.70
2018-06-03T09:56:07.079Z,101306.78
2018-06-03T09:58:15.420Z,101311.16
2018-06-03T10:00:24.833Z,101302.13
2018-06-03T10:02:34.794Z,101307.98
2018-06-03T10:04:45.157Z,101261.00
2018-06-03T10:06:55.283Z,101281.66
2018-06-03T10:09:03.288Z,101311.42
2018-06-03T10:11:09.614Z,101307.77
2018-06-03T10:13:16.832Z,101295.80
2018-06-03T10:15:26.097Z,101309.11
2018-06-03T10:17:34.291Z,101280.64
2018-06-03T10:19:42.923Z,101314.76
2018-06-03T10:21:50.845Z,101306.97
2018-06-03T10:23:57.573Z,101310.06
2018-06-03T10:26:05.015Z,101310.45
2018-06-03T10:28:11.410Z,101303.66
2018-06-03T10:30:19.478Z,101307.70
2018-06-03T10:32:27.064Z,101304.92
2018-06-03T10:34:32.863Z,101296.94
2018-06-03T10:36:40.299Z,101296.94
2018-06-03T10:38:46.402Z,101297.56
2018-06-03T10:40:52.468Z,101262.95
2018-06-03T10:42:58.737Z,101276.21
2018-06-03T10:45:05.095Z,101295.49
2018-06-03T10:47:11.380Z,101294.05
2018-06-03T10:49:17.651Z,101292.85
2018-06-03T10:51:23.864Z,101278.66
2018-06-03T10:53:29.862Z,101300.75
2018-06-03T10:55:36.236Z,101292.08
2018-06-03T10:57:43.015Z,101288.75
2018-06-03T10:59:49.702Z,101295.52
2018-06-03T11:01:55.843Z,101289.09
2018-06-03T11:04:03.226Z,101288.10
2018-06-03T11:06:09.641Z,101287.24
2018-06-03T11:08:16.395Z,101283.27
2018-06-03T11:10:24.187Z,101282.52
2018-06-03T11:12:30.182Z,101284.04
2018-06-03T11:14:37.113Z,101279.99
2018-06-03T11:16:43.451Z,101243.91
2018-06-03T11:18:49.652Z,101273.75
2018-06-03T11:20:56.761Z,101261.59
2018-06-03T11:23:01.846Z,101260.08
2018-06-03T11:25:08.780Z,101272.53
2018-06-03T11:27:15.237Z,101266.98
2018-06-03T11:29:22.259Z,101265.09
2018-06-03T11:31:28.137Z,101260.33
2018-06-03T11:33:34.555Z,101259.52
2018-06-03T11:35:41.324Z,101258.17
2018-06-03T11:37:48.015Z,101265.62
2018-06-03T11:39:55.567Z,101263.84
2018-06-03T11:42:01.496Z,101269.45
2018-06-03T11:44:08.470Z,101261.98
2018-06-03T11:46:14.085Z,101266.39
2018-06-03T11:48:21.450Z,101251.71
2018-06-03T11:50:31.806Z,101260.66
2018-06-03T11:52:37.913Z,101247.37
2018-06-03T11:54:44.467Z,101239.17
2018-06-03T11:57:01.712Z,101262.40
2018-06-03T11:59:45.655Z,101253.16
2018-06-03T12:01:52.302Z,101260.53
2018-06-03T12:03:59.159Z,101247.56
2018-06-03T12:06:06.419Z,101256.91
2018-06-03T12:08:12.265Z,101257.67
2018-06-03T12:10:18.911Z,101257.36
2018-06-03T12:12:26.064Z,101255.50
2018-06-03T12:14:32.030Z,101251.67
2018-06-03T12:16:37.727Z,101255.73
2018-06-03T12:18:44.334Z,101231.11
2018-06-03T12:20:50.144Z,101238.20
2018-06-03T12:22:56.261Z,101250.43
2018-06-03T12:25:02.532Z,101253.39
2018-06-03T12:27:08.766Z,101246.84
2018-06-03T12:29:14.735Z,101248.58
2018-06-03T12:31:22.118Z,101244.84
2018-06-03T12:33:28.558Z,101246.08
2018-06-03T12:35:34.413Z,101242.42
2018-06-03T12:37:41.257Z,101213.19
2018-06-03T12:39:49.519Z,101238.67
2018-06-03T12:41:57.002Z,101239.20
2018-06-03T12:44:03.630Z,101237.91
2018-06-03T12:46:11.400Z,101217.94
2018-06-03T12:48:18.664Z,101230.27
2018-06-03T12:50:24.157Z,101227.16
2018-06-03T12:52:30.268Z,101229.87
2018-06-03T12:54:35.637Z,101226.84
2018-06-03T12:56:42.089Z,101217.79
2018-06-03T12:58:47.717Z,101223.49
2018-06-03T13:00:54.185Z,101217.82
2018-06-03T13:03:00.293Z,101219.57
2018-06-03T13:05:06.183Z,101222.63
2018-06-03T13:07:12.844Z,101216.50
2018-06-03T13:09:19.729Z,101222.16
2018-06-03T13:11:26.021Z,101221.72
2018-06-03T13:13:32.889Z,101224.77
2018-06-03T13:15:38.714Z,101222.57
2018-06-03T13:17:44.435Z,101204.99
2018-06-03T13:19:50.032Z,101184.38
2018-06-03T13:21:55.652Z,101217.11
2018-06-03T13:24:01.860Z,101221.06
2018-06-03T13:26:08.103Z,101214.05
2018-06-03T13:28:14.254Z,101213.66
2018-06-03T13:30:21.143Z,101213.73
2018-06-03T13:32:29.653Z,101210.16
2018-06-03T13:34:36.692Z,101204.36
2018-06-03T13:36:45.161Z,101172.89
2018-06-03T13:38:51.326Z,101203.47
2018-06-03T13:40:57.325Z,101192.78
2018-06-03T13:43:04.515Z,101194.66
2018-06-03T13:45:17.894Z,101136.65
2018-06-03T13:47:25.184Z,101187.25
2018-06-03T13:49:33.047Z,101185.95
2018-06-03T13:51:39.995Z,101175.05
2018-06-03T13:53:49.251Z,101171.12
2018-06-03T13:56:01.364Z,101170.69
2018-06-03T13:58:06.368Z,101168.95
2018-06-03T14:00:13.237Z,101168.48
2018-06-03T14:02:18.923Z,101162.80
2018-06-03T14:04:25.917Z,101163.67
2018-06-03T14:06:31.429Z,101164.46
2018-06-03T14:08:36.581Z,101158.30
2018-06-03T14:10:41.747Z,101144.69
2018-06-03T14:12:47.067Z,101154.84
2018-06-03T14:14:52.249Z,101155.35
2018-06-03T14:16:57.623Z,101148.31
2018-06-03T14:19:03.188Z,101147.07
2018-06-03T14:21:08.528Z,101143.55
2018-06-03T14:23:15.892Z,101141.77
2018-06-03T14:25:22.989Z,101020.11
2018-06-03T14:27:30.319Z,101123.81
2018-06-03T14:29:36.737Z,101136.58
2018-06-03T14:31:43.784Z,101127.06
2018-06-03T14:33:49.744Z,101128.37
2018-06-03T14:35:55.282Z,101124.42
2018-06-03T14:38:00.459Z,101119.18
2018-06-03T14:40:06.463Z,101119.57
2018-06-03T14:42:14.067Z,101101.66
2018-06-03T14:44:22.233Z,101115.61
2018-06-03T14:46:28.561Z,101099.47
2018-06-03T14:48:35.098Z,101104.36
2018-06-03T14:50:44.159Z,101104.76
2018-06-03T14:52:48.966Z,101102.14
2018-06-03T14:54:53.773Z,101095.06
2018-06-03T14:56:58.790Z,101094.98
2018-06-03T14:59:04.650Z,101102.50
2018-06-03T15:01:09.467Z,101092.88
2018-06-03T15:03:14.289Z,101088.89
2018-06-03T15:05:19.307Z,101086.68
2018-06-03T15:07:24.145Z,101067.02
2018-06-03T15:09:29.618Z,101083.08
2018-06-03T15:11:35.710Z,101073.23
2018-06-03T15:13:40.628Z,101071.45
2018-06-03T15:15:45.830Z,101080.86
2018-06-03T15:17:50.856Z,101071.03
2018-06-03T15:19:55.676Z,101066.14
2018-06-03T15:22:00.514Z,101062.31
2018-06-03T15:24:07.684Z,101064.05
2018-06-03T15:30:37.144Z,101056.61
2018-06-03T15:32:42.423Z,101015.63
2018-06-03T15:34:49.941Z,101047.08
2018-06-03T15:36:55.906Z,101027.00
2018-06-03T15:39:03.555Z,101050.41
2018-06-03T15:41:10.365Z,101041.31
2018-06-03T15:43:16.473Z,101044.39
2018-06-03T15:45:22.857Z,101035.97
2018-06-03T15:47:28.985Z,101022.94
2018-06-03T15:49:33.744Z,101035.39
2018-06-03T15:51:39.342Z,101038.45
2018-06-03T15:53:44.183Z,101037.73
2018-06-03T15:55:48.983Z,101039.94
2018-06-03T15:57:53.770Z,101037.37
2018-06-03T15:59:58.457Z,101036.23
2018-06-03T16:02:03.290Z,101037.11
2018-06-03T16:04:08.123Z,101031.44
2018-06-03T16:06:12.989Z,101036.63
2018-06-03T16:08:18.250Z,101033.02
2018-06-03T16:10:24.921Z,100986.39
2018-06-03T16:12:29.487Z,101012.03
2018-06-03T16:14:34.461Z,101029.43
2018-06-03T16:18:54.967Z,101020.56
2018-06-03T16:21:00.247Z,101020.93
2018-06-03T16:23:04.789Z,101015.60
2018-06-03T16:25:09.689Z,101015.36
2018-06-03T16:27:14.546Z,101017.83
2018-06-03T16:29:19.536Z,101010.19
2018-06-03T16:31:24.486Z,101015.68
2018-06-03T16:33:29.301Z,101012.41
2018-06-03T16:35:34.873Z,101013.98
2018-06-03T16:37:39.731Z,100990.13
2018-06-03T16:39:46.978Z,101005.67
2018-06-03T16:41:52.437Z,100986.20
2018-06-03T16:43:57.487Z,100993.26
2018-06-03T16:46:02.585Z,100991.41
2018-06-03T16:48:07.642Z,100992.49
2018-06-03T16:50:14.784Z,101000.77
2018-06-03T16:52:22.097Z,100997.06
2018-06-03T16:54:29.323Z,100978.46
2018-06-03T16:56:37.153Z,101002.72
2018-06-03T16:58:44.770Z,100984.80
2018-06-03T17:00:50.129Z,101002.23
2018-06-03T17:02:55.942Z,101000.25
2018-06-03T17:05:00.762Z,101004.34
2018-06-03T17:07:06.676Z,101004.00
2018-06-03T17:09:11.733Z,100997.68
2018-06-03T17:11:16.663Z,100997.58
2018-06-03T17:13:21.750Z,101001.09
2018-06-03T17:15:26.719Z,100951.25
2018-06-03T17:17:32.007Z,100990.66
2018-06-03T17:19:37.304Z,100967.05
2018-06-03T17:21:42.859Z,100986.81
2018-06-03T17:23:47.722Z,100993.02
2018-06-03T17:25:53.120Z,100990.58
2018-06-03T17:27:59.823Z,100996.66
2018-06-03T17:30:06.498Z,100989.90
2018-06-03T17:32:12.185Z,100965.52
2018-06-03T17:34:17.168Z,100984.91
2018-06-03T17:36:22.117Z,100939.59
2018-06-03T17:38:27.053Z,100982.61
2018-06-03T17:40:32.573Z,100964.85
2018-06-03T17:42:37.380Z,100979.37
2018-06-03T17:44:43.136Z,100975.56
2018-06-03T17:46:48.012Z,100976.70
2018-06-03T17:48:52.774Z,100977.13
2018-06-03T17:50:58.237Z,100976.92
2018-06-03T17:53:03.141Z,100982.64
2018-06-03T17:55:09.088Z,100969.58
2018-06-03T17:57:14.637Z,100974.73
2018-06-03T17:59:19.502Z,100971.55
2018-06-03T18:01:24.281Z,100958.30
2018-06-03T18:03:29.039Z,100967.46
2018-06-03T18:05:33.799Z,100895.94
2018-06-03T18:07:38.375Z,100961.13
2018-06-03T18:09:43.325Z,100962.42
2018-06-03T18:11:48.275Z,100959.13
2018-06-03T18:13:54.036Z,100958.21
2018-06-03T18:15:59.002Z,100955.77
2018-06-03T18:18:04.117Z,100959.75
2018-06-03T18:20:08.942Z,100950.20
2018-06-03T18:22:14.466Z,100958.66
2018-06-03T18:26:26.539Z,100954.48
2018-06-03T18:28:31.388Z,100952.41
2018-06-03T18:30:36.488Z,100952.45
2018-06-03T18:32:42.440Z,100937.19
2018-06-03T18:34:47.922Z,100948.55
2018-06-03T18:36:52.903Z,100927.24
2018-06-03T18:38:58.073Z,100955.13
2018-06-03T18:41:04.450Z,100963.02
2018-06-03T18:43:09.511Z,100837.98
2018-06-03T18:45:15.455Z,100950.43
2018-06-03T18:47:20.393Z,100922.49
2018-06-03T18:49:26.219Z,100946.50
2018-06-03T18:51:31.610Z,100953.05
2018-06-03T18:53:37.263Z,100902.91
2018-06-03T18:55:43.134Z,100857.98
2018-06-03T18:57:48.477Z,100813.09
2018-06-03T19:00:01.259Z,100965.66
2018-06-03T19:02:08.131Z,100848.34
2018-06-03T19:04:13.719Z,100954.72
2018-06-03T19:06:20.787Z,100941.65
2018-06-03T19:08:27.660Z,100955.55
2018-06-03T19:10:38.447Z,100946.82
2018-06-03T19:12:44.433Z,100927.18
2018-06-03T19:14:50.474Z,100913.20
2018-06-03T19:16:57.827Z,100907.49
2018-06-03T19:19:07.325Z,100934.97
2018-06-03T19:21:13.929Z,100940.58
2018-06-03T19:23:21.201Z,100941.42
2018-06-03T19:25:28.181Z,100629.16
2018-06-03T19:27:35.378Z,100937.84
2018-06-03T19:29:41.868Z,100946.08
2018-06-03T19:31:47.353Z,100949.09
2018-06-03T19:33:52.433Z,100949.44
2018-06-03T19:35:57.830Z,100950.70
2018-06-03T19:38:05.503Z,100965.43
2018-06-03T19:40:20.466Z,100952.33
2018-06-03T19:42:28.338Z,100935.63
2018-06-03T19:44:34.900Z,100956.59
2018-06-03T19:46:39.893Z,100942.13
2018-06-03T19:48:50.794Z,100963.00
2018-06-03T19:51:00.633Z,100956.46
2018-06-03T19:53:07.249Z,100965.08
2018-06-03T19:55:12.589Z,100960.70
2018-06-03T19:57:17.699Z,100965.48
2018-06-03T19:59:23.585Z,100963.68
2018-06-03T20:01:28.541Z,100965.38
2018-06-03T20:03:34.338Z,100923.86
2018-06-03T20:05:39.087Z,100965.75
2018-06-03T20:07:44.076Z,100966.13
2018-06-03T20:09:49.027Z,100962.61
2018-06-03T20:11:54.807Z,100961.30
2018-06-03T20:14:00.320Z,100966.89
2018-06-03T20:16:05.232Z,100961.64
2018-06-03T20:18:10.562Z,100955.91
2018-06-03T20:20:16.030Z,100959.75
2018-06-03T20:22:21.074Z,100957.08
2018-06-03T20:24:25.920Z,100954.86
2018-06-03T20:26:36.765Z,100953.51
2018-06-03T20:28:42.810Z,100949.09
2018-06-03T20:30:47.669Z,100939.02
2018-06-03T20:32:52.846Z,100947.28
2018-06-03T20:34:57.537Z,100954.59
2018-06-03T20:37:02.407Z,100918.75
2018-06-03T20:39:09.113Z,100952.33
2018-06-03T20:41:13.783Z,100945.74
2018-06-03T20:43:18.737Z,100950.50
2018-06-03T20:45:23.781Z,100955.67
2018-06-03T20:47:28.900Z,100955.19
2018-06-03T20:49:33.723Z,100955.09
2018-06-03T20:51:38.649Z,100957.19
2018-06-03T20:53:43.623Z,100905.59
2018-06-03T20:55:48.432Z,100957.06
2018-06-03T20:57:53.201Z,100957.92
2018-06-03T20:59:58.360Z,100954.83
2018-06-03T21:02:09.784Z,100953.49
2018-06-03T21:04:14.971Z,100932.80
2018-06-03T21:06:19.862Z,100951.17
2018-06-03T21:08:24.598Z,100962.45
2018-06-03T21:10:29.571Z,100956.77
2018-06-03T21:12:34.354Z,100928.33
2018-06-03T21:14:39.054Z,100933.59
2018-06-03T21:16:44.249Z,100959.28
2018-06-03T21:18:49.388Z,100910.72
2018-06-03T21:20:54.226Z,100957.91
2018-06-03T21:22:59.104Z,100959.61
2018-06-03T21:25:04.003Z,100959.16
2018-06-03T21:27:08.760Z,100935.55
2018-06-03T21:29:13.176Z,100956.54
2018-06-03T21:31:18.430Z,100953.02
2018-06-03T21:33:23.404Z,100954.24
2018-06-03T21:35:28.249Z,100952.02
2018-06-03T21:37:33.350Z,100945.83
2018-06-03T21:39:38.474Z,100798.12
2018-06-03T21:41:43.463Z,100946.80
2018-06-03T21:43:48.503Z,100944.11
2018-06-03T21:45:53.355Z,100906.07
2018-06-03T21:47:58.336Z,100931.38
2018-06-03T21:50:03.206Z,100939.24
2018-06-03T21:52:07.878Z,100938.27
2018-06-03T21:54:12.820Z,100937.75
2018-06-03T21:56:18.040Z,100936.38
2018-06-03T21:58:23.329Z,100938.45
2018-06-03T22:00:28.602Z,100843.36
2018-06-03T22:02:33.666Z,100945.72
2018-06-03T22:04:38.534Z,100933.95
2018-06-03T22:06:43.595Z,100933.53
2018-06-03T22:08:48.475Z,100927.94
2018-06-03T22:10:53.608Z,100859.17
2018-06-03T22:12:58.522Z,100930.93
2018-06-03T22:15:03.331Z,100934.80
2018-06-03T22:17:08.574Z,100831.16
2018-06-03T22:19:13.890Z,100924.36
2018-06-03T22:21:20.043Z,100920.89
2018-06-03T22:23:25.437Z,100924.22
2018-06-03T22:25:30.644Z,100934.19
2018-06-03T22:27:35.843Z,100922.84
2018-06-03T22:29:44.171Z,100921.38
2018-06-03T22:31:48.896Z,100922.20
2018-06-03T22:33:53.828Z,100827.74
2018-06-03T22:35:58.805Z,100914.36
2018-06-03T22:38:03.967Z,100882.01
2018-06-03T22:40:09.130Z,100913.03
2018-06-03T22:42:14.300Z,100915.52
2018-06-03T22:44:20.468Z,100913.45
2018-06-03T22:46:25.361Z,100916.88
2018-06-03T22:48:30.144Z,100914.64
2018-06-03T22:50:34.903Z,100889.59
2018-06-03T22:52:39.617Z,100921.87
2018-06-03T22:54:44.484Z,100843.56
2018-06-03T22:58:06.929Z,100919.19
2018-06-03T23:00:14.633Z,100922.16
2018-06-03T23:02:19.547Z,100779.34
2018-06-03T23:04:24.573Z,100921.59
2018-06-03T23:06:29.315Z,100919.39
2018-06-03T23:08:34.125Z,100903.09
2018-06-03T23:10:38.962Z,100913.17
2018-06-03T23:12:43.717Z,100906.66
2018-06-03T23:14:48.439Z,100847.91
2018-06-03T23:16:53.311Z,100907.05
2018-06-03T23:18:58.077Z,100901.83
2018-06-03T23:21:02.882Z,100858.07
2018-06-03T23:23:07.610Z,100889.10
2018-06-03T23:25:12.363Z,100905.63
2018-06-03T23:27:17.118Z,100885.52
2018-06-03T23:29:21.822Z,100904.70
2018-06-03T23:31:26.637Z,100902.05
2018-06-03T23:33:31.390Z,100894.05
2018-06-03T23:35:36.088Z,100905.69
2018-06-03T23:37:40.838Z,100882.49
2018-06-03T23:39:45.514Z,100901.67
2018-06-03T23:41:50.196Z,100900.92
2018-06-03T23:43:54.839Z,100872.80
2018-06-03T23:45:59.543Z,100896.91
2018-06-03T23:48:04.269Z,100894.80
2018-06-03T23:50:08.960Z,100889.28
2018-06-03T23:52:13.637Z,100880.12
2018-06-03T23:54:18.337Z,100891.91
2018-06-03T23:56:22.969Z,100887.95
2018-06-03T23:58:27.665Z,100883.06
